sensor_id;sensor_type;location;lat;lon;timestamp;temperature;humidity
68350;DHT22;55268;-34.538;-58.598;2022-08-04T10:20:48;10.50;74.10
68350;DHT22;55268;-34.538;-58.598;2022-08-04T10:23:22;10.60;74.20
68350;DHT22;55268;-34.538;-58.598;2022-08-04T10:28:50;10.60;73.30
68350;DHT22;55268;-34.538;-58.598;2022-08-04T10:31:25;10.60;73.60
68350;DHT22;55268;-34.538;-58.598;2022-08-04T10:34:09;10.60;73.90
68350;DHT22;55268;-34.538;-58.598;2022-08-04T10:39:39;10.70;74.10
68350;DHT22;55268;-34.538;-58.598;2022-08-04T10:42:30;10.70;74.30
68350;DHT22;55268;-34.538;-58.598;2022-08-04T10:47:50;10.70;74.10
68350;DHT22;55268;-34.538;-58.598;2022-08-04T10:50:19;10.60;74.60
68350;DHT22;55268;-34.538;-58.598;2022-08-04T10:53:08;10.60;74.70
68350;DHT22;55268;-34.538;-58.598;2022-08-04T10:55:45;10.60;74.60
68350;DHT22;55268;-34.538;-58.598;2022-08-04T10:58:20;10.50;74.60
68350;DHT22;55268;-34.538;-58.598;2022-08-04T11:00:56;10.50;74.30
68350;DHT22;55268;-34.538;-58.598;2022-08-04T11:03:48;10.40;74.50
68350;DHT22;55268;-34.538;-58.598;2022-08-04T11:06:19;10.20;74.70
68350;DHT22;55268;-34.538;-58.598;2022-08-04T11:08:53;10.10;74.60
68350;DHT22;55268;-34.538;-58.598;2022-08-04T11:14:11;9.80;75.30
68350;DHT22;55268;-34.538;-58.598;2022-08-04T11:16:51;9.80;75.20
68350;DHT22;55268;-34.538;-58.598;2022-08-04T11:19:29;9.70;75.80
68350;DHT22;55268;-34.538;-58.598;2022-08-04T11:24:36;9.70;75.80
68350;DHT22;55268;-34.538;-58.598;2022-08-04T11:27:19;9.70;75.60
68350;DHT22;55268;-34.538;-58.598;2022-08-04T11:30:07;9.70;75.90
68350;DHT22;55268;-34.538;-58.598;2022-08-04T11:32:48;9.80;75.80
68350;DHT22;55268;-34.538;-58.598;2022-08-04T11:35:31;9.90;75.90
68350;DHT22;55268;-34.538;-58.598;2022-08-04T11:38:31;10.00;75.30
68350;DHT22;55268;-34.538;-58.598;2022-08-04T11:41:06;10.00;74.70
68350;DHT22;55268;-34.538;-58.598;2022-08-04T11:43:53;9.90;74.40
68350;DHT22;55268;-34.538;-58.598;2022-08-04T11:46:26;9.90;75.40
68350;DHT22;55268;-34.538;-58.598;2022-08-04T11:49:28;9.80;75.40
68350;DHT22;55268;-34.538;-58.598;2022-08-04T11:51:59;9.80;75.60
68350;DHT22;55268;-34.538;-58.598;2022-08-04T11:54:26;9.70;75.90
68350;DHT22;55268;-34.538;-58.598;2022-08-04T11:56:56;9.60;75.60
68350;DHT22;55268;-34.538;-58.598;2022-08-04T11:59:27;9.60;76.40
68350;DHT22;55268;-34.538;-58.598;2022-08-04T12:02:05;9.70;75.90
68350;DHT22;55268;-34.538;-58.598;2022-08-04T12:18:38;9.70;75.30
68350;DHT22;55268;-34.538;-58.598;2022-08-04T12:21:06;9.70;76.50
68350;DHT22;55268;-34.538;-58.598;2022-08-04T12:23:38;9.60;76.20
68350;DHT22;55268;-34.538;-58.598;2022-08-04T12:26:10;9.60;75.60
68350;DHT22;55268;-34.538;-58.598;2022-08-04T12:28:43;9.60;76.00
68350;DHT22;55268;-34.538;-58.598;2022-08-04T12:31:17;9.60;76.30
68350;DHT22;55268;-34.538;-58.598;2022-08-04T12:33:49;9.50;76.00
68350;DHT22;55268;-34.538;-58.598;2022-08-04T12:39:02;9.60;76.10
68350;DHT22;55268;-34.538;-58.598;2022-08-04T12:41:38;9.50;75.80
68350;DHT22;55268;-34.538;-58.598;2022-08-04T12:44:11;9.30;76.70
68350;DHT22;55268;-34.538;-58.598;2022-08-04T12:46:45;9.20;76.80
68350;DHT22;55268;-34.538;-58.598;2022-08-04T12:49:15;9.10;76.90
68350;DHT22;55268;-34.538;-58.598;2022-08-04T12:51:44;9.00;76.90
68350;DHT22;55268;-34.538;-58.598;2022-08-04T12:54:12;8.90;77.80
68350;DHT22;55268;-34.538;-58.598;2022-08-04T12:56:45;8.90;78.30
68350;DHT22;55268;-34.538;-58.598;2022-08-04T12:59:14;8.80;78.10
68350;DHT22;55268;-34.538;-58.598;2022-08-04T13:01:50;8.70;78.10
68350;DHT22;55268;-34.538;-58.598;2022-08-04T13:04:21;8.60;78.80
68350;DHT22;55268;-34.538;-58.598;2022-08-04T13:06:56;8.50;79.00
68350;DHT22;55268;-34.538;-58.598;2022-08-04T13:09:32;8.40;79.60
68350;DHT22;55268;-34.538;-58.598;2022-08-04T13:12:04;8.40;80.00
68350;DHT22;55268;-34.538;-58.598;2022-08-04T13:14:34;8.40;80.00
68350;DHT22;55268;-34.538;-58.598;2022-08-04T13:17:04;8.30;80.40
68350;DHT22;55268;-34.538;-58.598;2022-08-04T13:19:34;8.40;80.70
68350;DHT22;55268;-34.538;-58.598;2022-08-04T13:22:02;8.40;80.30
68350;DHT22;55268;-34.538;-58.598;2022-08-04T13:27:21;8.60;80.00
68350;DHT22;55268;-34.538;-58.598;2022-08-04T13:29:54;8.60;79.80
68350;DHT22;55268;-34.538;-58.598;2022-08-04T13:32:23;8.70;79.00
68350;DHT22;55268;-34.538;-58.598;2022-08-04T13:34:53;8.70;78.50
68350;DHT22;55268;-34.538;-58.598;2022-08-04T13:37:25;8.70;78.60
68350;DHT22;55268;-34.538;-58.598;2022-08-04T13:40:00;8.60;78.80
68350;DHT22;55268;-34.538;-58.598;2022-08-04T13:42:27;8.50;78.90
68350;DHT22;55268;-34.538;-58.598;2022-08-04T13:44:56;8.50;78.50
68350;DHT22;55268;-34.538;-58.598;2022-08-04T13:47:29;8.50;77.90
68350;DHT22;55268;-34.538;-58.598;2022-08-04T13:52:52;8.10;79.00
68350;DHT22;55268;-34.538;-58.598;2022-08-04T13:55:32;8.00;80.20
68350;DHT22;55268;-34.538;-58.598;2022-08-04T14:00:43;8.20;80.30
68350;DHT22;55268;-34.538;-58.598;2022-08-04T14:03:20;8.30;79.30
68350;DHT22;55268;-34.538;-58.598;2022-08-04T14:06:06;8.20;78.80
68350;DHT22;55268;-34.538;-58.598;2022-08-04T14:09:02;8.10;79.20
68350;DHT22;55268;-34.538;-58.598;2022-08-04T14:11:34;8.10;79.30
68350;DHT22;55268;-34.538;-58.598;2022-08-04T14:14:16;8.10;79.60
68350;DHT22;55268;-34.538;-58.598;2022-08-04T14:17:00;8.10;79.40
68350;DHT22;55268;-34.538;-58.598;2022-08-04T14:19:58;8.10;79.00
68350;DHT22;55268;-34.538;-58.598;2022-08-04T14:25:04;8.10;79.00
68350;DHT22;55268;-34.538;-58.598;2022-08-04T14:27:52;8.10;79.10
68350;DHT22;55268;-34.538;-58.598;2022-08-04T14:33:03;8.30;77.40
68350;DHT22;55268;-34.538;-58.598;2022-08-04T14:35:33;8.30;76.10
68350;DHT22;55268;-34.538;-58.598;2022-08-04T14:40:35;8.20;75.70
68350;DHT22;55268;-34.538;-58.598;2022-08-04T14:43:03;8.20;75.60
68350;DHT22;55268;-34.538;-58.598;2022-08-04T14:45:32;8.10;75.00
68350;DHT22;55268;-34.538;-58.598;2022-08-04T14:48:09;8.10;74.50
68350;DHT22;55268;-34.538;-58.598;2022-08-04T14:53:12;8.30;73.20
68350;DHT22;55268;-34.538;-58.598;2022-08-04T14:55:43;8.30;73.60
68350;DHT22;55268;-34.538;-58.598;2022-08-04T14:58:17;8.50;72.90
68350;DHT22;55268;-34.538;-58.598;2022-08-04T15:00:44;8.60;72.40
68350;DHT22;55268;-34.538;-58.598;2022-08-04T15:03:12;8.70;71.70
68350;DHT22;55268;-34.538;-58.598;2022-08-04T15:05:42;8.80;71.40
68350;DHT22;55268;-34.538;-58.598;2022-08-04T15:08:14;8.90;70.90
68350;DHT22;55268;-34.538;-58.598;2022-08-04T15:10:42;8.90;70.50
68350;DHT22;55268;-34.538;-58.598;2022-08-04T15:13:10;8.90;70.40
68350;DHT22;55268;-34.538;-58.598;2022-08-04T15:15:42;8.80;70.40
68350;DHT22;55268;-34.538;-58.598;2022-08-04T15:18:11;8.80;70.40
68350;DHT22;55268;-34.538;-58.598;2022-08-04T15:20:39;8.80;69.60
68350;DHT22;55268;-34.538;-58.598;2022-08-04T15:23:08;8.80;69.40
68350;DHT22;55268;-34.538;-58.598;2022-08-04T15:25:39;8.90;69.30
68350;DHT22;55268;-34.538;-58.598;2022-08-04T15:28:12;8.80;69.20
68350;DHT22;55268;-34.538;-58.598;2022-08-04T15:30:41;8.90;68.80
68350;DHT22;55268;-34.538;-58.598;2022-08-04T15:33:12;9.00;68.40
68350;DHT22;55268;-34.538;-58.598;2022-08-04T15:35:44;9.00;67.60
68350;DHT22;55268;-34.538;-58.598;2022-08-04T15:38:32;9.10;68.00
68350;DHT22;55268;-34.538;-58.598;2022-08-04T15:41:07;9.20;66.90
68350;DHT22;55268;-34.538;-58.598;2022-08-04T15:46:16;9.40;66.60
68350;DHT22;55268;-34.538;-58.598;2022-08-04T15:48:49;9.40;66.40
68350;DHT22;55268;-34.538;-58.598;2022-08-04T15:51:24;9.40;66.80
68350;DHT22;55268;-34.538;-58.598;2022-08-04T15:56:48;9.50;66.20
68350;DHT22;55268;-34.538;-58.598;2022-08-04T16:08:10;9.80;66.00
68350;DHT22;55268;-34.538;-58.598;2022-08-04T16:10:42;9.80;66.40
68350;DHT22;55268;-34.538;-58.598;2022-08-04T16:13:13;9.90;65.70
68350;DHT22;55268;-34.538;-58.598;2022-08-04T16:15:45;9.90;65.60
68350;DHT22;55268;-34.538;-58.598;2022-08-04T16:21:05;9.70;65.80
68350;DHT22;55268;-34.538;-58.598;2022-08-04T16:26:05;9.70;65.70
68350;DHT22;55268;-34.538;-58.598;2022-08-04T16:31:10;9.70;65.70
68350;DHT22;55268;-34.538;-58.598;2022-08-04T16:33:40;9.70;65.20
68350;DHT22;55268;-34.538;-58.598;2022-08-04T16:36:11;9.70;65.40
68350;DHT22;55268;-34.538;-58.598;2022-08-04T16:39:02;9.70;65.00
68350;DHT22;55268;-34.538;-58.598;2022-08-04T16:41:40;9.70;65.30
68350;DHT22;55268;-34.538;-58.598;2022-08-04T16:46:59;9.70;66.10
68350;DHT22;55268;-34.538;-58.598;2022-08-04T16:49:30;9.80;65.70
68350;DHT22;55268;-34.538;-58.598;2022-08-04T16:52:01;9.90;64.70
68350;DHT22;55268;-34.538;-58.598;2022-08-04T16:54:31;10.00;63.60
68350;DHT22;55268;-34.538;-58.598;2022-08-04T16:57:00;10.00;63.90
68350;DHT22;55268;-34.538;-58.598;2022-08-04T16:59:36;9.90;64.20
68350;DHT22;55268;-34.538;-58.598;2022-08-04T17:02:05;10.00;63.50
68350;DHT22;55268;-34.538;-58.598;2022-08-04T17:04:35;10.00;63.10
68350;DHT22;55268;-34.538;-58.598;2022-08-04T17:07:04;10.10;62.50
68350;DHT22;55268;-34.538;-58.598;2022-08-04T17:09:35;10.20;62.50
68350;DHT22;55268;-34.538;-58.598;2022-08-04T17:12:04;10.20;62.20
68350;DHT22;55268;-34.538;-58.598;2022-08-04T17:14:32;10.30;62.50
68350;DHT22;55268;-34.538;-58.598;2022-08-04T17:17:01;10.30;62.50
68350;DHT22;55268;-34.538;-58.598;2022-08-04T17:19:30;10.40;61.90
68350;DHT22;55268;-34.538;-58.598;2022-08-04T17:22:04;10.40;61.50
68350;DHT22;55268;-34.538;-58.598;2022-08-04T17:24:35;10.40;61.90
68350;DHT22;55268;-34.538;-58.598;2022-08-04T17:27:05;10.50;62.10
68350;DHT22;55268;-34.538;-58.598;2022-08-04T17:29:35;10.50;62.60
68350;DHT22;55268;-34.538;-58.598;2022-08-04T17:32:03;10.50;62.50
68350;DHT22;55268;-34.538;-58.598;2022-08-04T17:34:31;10.60;60.90
68350;DHT22;55268;-34.538;-58.598;2022-08-04T17:37:03;10.50;60.70
68350;DHT22;55268;-34.538;-58.598;2022-08-04T17:39:32;10.60;61.20
68350;DHT22;55268;-34.538;-58.598;2022-08-04T17:41:59;10.50;61.40
68350;DHT22;55268;-34.538;-58.598;2022-08-04T17:44:41;10.60;60.50
68350;DHT22;55268;-34.538;-58.598;2022-08-04T17:47:18;10.60;61.00
68350;DHT22;55268;-34.538;-58.598;2022-08-04T17:49:47;10.60;60.60
68350;DHT22;55268;-34.538;-58.598;2022-08-04T17:52:21;10.70;59.30
68350;DHT22;55268;-34.538;-58.598;2022-08-04T17:54:58;10.80;59.10
68350;DHT22;55268;-34.538;-58.598;2022-08-04T17:57:30;10.90;58.70
68350;DHT22;55268;-34.538;-58.598;2022-08-04T17:59:59;10.80;59.30
68350;DHT22;55268;-34.538;-58.598;2022-08-04T18:02:30;10.80;60.10
68350;DHT22;55268;-34.538;-58.598;2022-08-04T18:04:59;10.80;59.60
68350;DHT22;55268;-34.538;-58.598;2022-08-04T18:07:38;10.90;59.40
68350;DHT22;55268;-34.538;-58.598;2022-08-04T18:10:07;10.90;59.80
68350;DHT22;55268;-34.538;-58.598;2022-08-04T18:12:36;10.90;59.80
68350;DHT22;55268;-34.538;-58.598;2022-08-04T18:15:07;10.80;59.40
68350;DHT22;55268;-34.538;-58.598;2022-08-04T18:17:39;10.80;59.10
68350;DHT22;55268;-34.538;-58.598;2022-08-04T18:20:14;10.80;58.30
68350;DHT22;55268;-34.538;-58.598;2022-08-04T18:22:42;10.90;58.00
68350;DHT22;55268;-34.538;-58.598;2022-08-04T18:25:12;10.90;57.90
68350;DHT22;55268;-34.538;-58.598;2022-08-04T18:27:54;10.90;57.80
68350;DHT22;55268;-34.538;-58.598;2022-08-04T18:30:23;11.00;58.20
68350;DHT22;55268;-34.538;-58.598;2022-08-04T18:32:51;11.00;57.80
68350;DHT22;55268;-34.538;-58.598;2022-08-04T18:35:23;11.10;57.10
68350;DHT22;55268;-34.538;-58.598;2022-08-04T18:37:54;11.00;57.50
68350;DHT22;55268;-34.538;-58.598;2022-08-04T18:40:22;11.00;57.60
68350;DHT22;55268;-34.538;-58.598;2022-08-04T18:42:50;11.10;57.70
68350;DHT22;55268;-34.538;-58.598;2022-08-04T18:45:20;11.10;57.30
68350;DHT22;55268;-34.538;-58.598;2022-08-04T18:47:49;11.10;57.20
68350;DHT22;55268;-34.538;-58.598;2022-08-04T18:50:17;11.10;57.00
68350;DHT22;55268;-34.538;-58.598;2022-08-04T18:52:44;11.10;56.90
68350;DHT22;55268;-34.538;-58.598;2022-08-04T18:55:14;11.10;57.50
68350;DHT22;55268;-34.538;-58.598;2022-08-04T18:57:43;11.20;56.00
68350;DHT22;55268;-34.538;-58.598;2022-08-04T19:00:11;11.20;56.20
68350;DHT22;55268;-34.538;-58.598;2022-08-04T19:02:38;11.30;56.00
68350;DHT22;55268;-34.538;-58.598;2022-08-04T19:05:12;11.20;55.90
68350;DHT22;55268;-34.538;-58.598;2022-08-04T19:07:41;11.30;56.30
68350;DHT22;55268;-34.538;-58.598;2022-08-04T19:10:08;11.30;56.30
68350;DHT22;55268;-34.538;-58.598;2022-08-04T19:12:36;11.30;55.70
68350;DHT22;55268;-34.538;-58.598;2022-08-04T19:15:07;11.30;55.20
68350;DHT22;55268;-34.538;-58.598;2022-08-04T19:17:36;11.40;55.20
68350;DHT22;55268;-34.538;-58.598;2022-08-04T19:20:04;11.30;55.00
68350;DHT22;55268;-34.538;-58.598;2022-08-04T19:22:33;11.30;55.70
68350;DHT22;55268;-34.538;-58.598;2022-08-04T19:25:03;11.30;55.70
68350;DHT22;55268;-34.538;-58.598;2022-08-04T19:27:32;11.40;55.70
68350;DHT22;55268;-34.538;-58.598;2022-08-04T19:30:00;11.40;55.50
68350;DHT22;55268;-34.538;-58.598;2022-08-04T19:32:28;11.40;55.70
68350;DHT22;55268;-34.538;-58.598;2022-08-04T19:34:55;11.40;55.30
68350;DHT22;55268;-34.538;-58.598;2022-08-04T19:37:28;11.30;56.00
68350;DHT22;55268;-34.538;-58.598;2022-08-04T19:39:57;11.30;55.70
68350;DHT22;55268;-34.538;-58.598;2022-08-04T19:42:24;11.30;55.50
68350;DHT22;55268;-34.538;-58.598;2022-08-04T19:44:51;11.30;55.80
68350;DHT22;55268;-34.538;-58.598;2022-08-04T19:47:21;11.30;55.90
68350;DHT22;55268;-34.538;-58.598;2022-08-04T19:49:50;11.40;55.80
68350;DHT22;55268;-34.538;-58.598;2022-08-04T19:52:19;11.40;55.60
68350;DHT22;55268;-34.538;-58.598;2022-08-04T19:54:46;11.50;55.50
68350;DHT22;55268;-34.538;-58.598;2022-08-04T19:57:16;11.40;55.90
68350;DHT22;55268;-34.538;-58.598;2022-08-04T19:59:45;11.40;55.80
68350;DHT22;55268;-34.538;-58.598;2022-08-04T20:02:12;11.40;56.50
68350;DHT22;55268;-34.538;-58.598;2022-08-04T20:04:40;11.40;56.50
68350;DHT22;55268;-34.538;-58.598;2022-08-04T20:07:10;11.40;56.30
68350;DHT22;55268;-34.538;-58.598;2022-08-04T20:09:39;11.40;56.20
68350;DHT22;55268;-34.538;-58.598;2022-08-04T20:12:06;11.50;56.50
68350;DHT22;55268;-34.538;-58.598;2022-08-04T20:14:33;11.50;56.50
68350;DHT22;55268;-34.538;-58.598;2022-08-04T20:17:03;11.60;55.90
68350;DHT22;55268;-34.538;-58.598;2022-08-04T20:19:33;11.60;56.40
68350;DHT22;55268;-34.538;-58.598;2022-08-04T20:22:00;11.60;56.70
68350;DHT22;55268;-34.538;-58.598;2022-08-04T20:24:27;11.70;56.50
68350;DHT22;55268;-34.538;-58.598;2022-08-04T20:26:58;11.70;56.00
68350;DHT22;55268;-34.538;-58.598;2022-08-04T20:29:28;11.70;56.30
68350;DHT22;55268;-34.538;-58.598;2022-08-04T20:31:55;11.70;54.90
68350;DHT22;55268;-34.538;-58.598;2022-08-04T20:34:23;11.70;55.10
68350;DHT22;55268;-34.538;-58.598;2022-08-04T20:36:53;11.70;54.70
68350;DHT22;55268;-34.538;-58.598;2022-08-04T20:39:23;11.70;54.60
68350;DHT22;55268;-34.538;-58.598;2022-08-04T20:41:51;11.70;55.20
68350;DHT22;55268;-34.538;-58.598;2022-08-04T20:44:18;11.70;55.40
68350;DHT22;55268;-34.538;-58.598;2022-08-04T20:46:47;11.70;55.60
68350;DHT22;55268;-34.538;-58.598;2022-08-04T20:49:16;11.70;55.30
68350;DHT22;55268;-34.538;-58.598;2022-08-04T20:51:43;11.70;55.50
68350;DHT22;55268;-34.538;-58.598;2022-08-04T20:54:11;11.70;55.50
68350;DHT22;55268;-34.538;-58.598;2022-08-04T20:56:41;11.60;55.30
68350;DHT22;55268;-34.538;-58.598;2022-08-04T20:59:13;11.60;55.30
68350;DHT22;55268;-34.538;-58.598;2022-08-04T21:01:41;11.60;55.50
68350;DHT22;55268;-34.538;-58.598;2022-08-04T21:04:08;11.50;55.50
68350;DHT22;55268;-34.538;-58.598;2022-08-04T21:06:58;11.50;55.30
68350;DHT22;55268;-34.538;-58.598;2022-08-04T21:09:29;11.50;55.90
68350;DHT22;55268;-34.538;-58.598;2022-08-04T21:11:57;11.40;56.20
68350;DHT22;55268;-34.538;-58.598;2022-08-04T21:14:27;11.40;56.30
68350;DHT22;55268;-34.538;-58.598;2022-08-04T21:16:58;11.30;56.70
68350;DHT22;55268;-34.538;-58.598;2022-08-04T21:19:27;11.30;56.60
68350;DHT22;55268;-34.538;-58.598;2022-08-04T21:21:57;11.30;57.00
68350;DHT22;55268;-34.538;-58.598;2022-08-04T21:24:27;11.30;57.10
68350;DHT22;55268;-34.538;-58.598;2022-08-04T21:26:58;11.20;56.80
68350;DHT22;55268;-34.538;-58.598;2022-08-04T21:29:27;11.20;56.00
68350;DHT22;55268;-34.538;-58.598;2022-08-04T21:31:54;11.20;55.50
68350;DHT22;55268;-34.538;-58.598;2022-08-04T21:34:21;11.10;55.70
68350;DHT22;55268;-34.538;-58.598;2022-08-04T21:36:51;11.10;55.70
68350;DHT22;55268;-34.538;-58.598;2022-08-04T21:39:21;11.00;56.00
68350;DHT22;55268;-34.538;-58.598;2022-08-04T21:41:48;10.90;56.30
68350;DHT22;55268;-34.538;-58.598;2022-08-04T21:44:15;10.90;56.60
68350;DHT22;55268;-34.538;-58.598;2022-08-04T21:46:47;10.90;56.90
68350;DHT22;55268;-34.538;-58.598;2022-08-04T21:49:18;10.80;57.10
68350;DHT22;55268;-34.538;-58.598;2022-08-04T21:51:46;10.80;57.30
68350;DHT22;55268;-34.538;-58.598;2022-08-04T21:54:13;10.80;57.50
68350;DHT22;55268;-34.538;-58.598;2022-08-04T21:56:43;10.80;57.60
68350;DHT22;55268;-34.538;-58.598;2022-08-04T21:59:13;10.80;57.90
68350;DHT22;55268;-34.538;-58.598;2022-08-04T22:01:41;10.80;57.90
68350;DHT22;55268;-34.538;-58.598;2022-08-04T22:04:08;10.70;58.10
68350;DHT22;55268;-34.538;-58.598;2022-08-04T22:06:38;10.80;58.20
68350;DHT22;55268;-34.538;-58.598;2022-08-04T22:09:09;10.80;58.20
68350;DHT22;55268;-34.538;-58.598;2022-08-04T22:11:37;10.70;58.40
68350;DHT22;55268;-34.538;-58.598;2022-08-04T22:14:07;10.70;58.50
68350;DHT22;55268;-34.538;-58.598;2022-08-04T22:16:36;10.70;58.60
68350;DHT22;55268;-34.538;-58.598;2022-08-04T22:19:15;10.70;58.70
68350;DHT22;55268;-34.538;-58.598;2022-08-04T22:21:50;10.60;58.90
68350;DHT22;55268;-34.538;-58.598;2022-08-04T22:24:17;10.60;59.10
68350;DHT22;55268;-34.538;-58.598;2022-08-04T22:26:46;10.60;59.40
68350;DHT22;55268;-34.538;-58.598;2022-08-04T22:29:16;10.60;59.50
68350;DHT22;55268;-34.538;-58.598;2022-08-04T22:31:45;10.50;59.60
68350;DHT22;55268;-34.538;-58.598;2022-08-04T22:34:16;10.60;59.70
68350;DHT22;55268;-34.538;-58.598;2022-08-04T22:36:46;10.60;59.80
68350;DHT22;55268;-34.538;-58.598;2022-08-04T22:39:15;10.60;59.60
68350;DHT22;55268;-34.538;-58.598;2022-08-04T22:41:42;10.60;59.70
68350;DHT22;55268;-34.538;-58.598;2022-08-04T22:44:09;10.60;60.00
68350;DHT22;55268;-34.538;-58.598;2022-08-04T22:46:39;10.60;59.70
68350;DHT22;55268;-34.538;-58.598;2022-08-04T22:49:11;10.60;59.70
68350;DHT22;55268;-34.538;-58.598;2022-08-04T22:51:38;10.60;59.80
68350;DHT22;55268;-34.538;-58.598;2022-08-04T22:54:05;10.60;59.80
68350;DHT22;55268;-34.538;-58.598;2022-08-04T22:56:35;10.60;60.10
68350;DHT22;55268;-34.538;-58.598;2022-08-04T22:59:05;10.60;60.30
68350;DHT22;55268;-34.538;-58.598;2022-08-04T23:01:37;10.60;60.30
68350;DHT22;55268;-34.538;-58.598;2022-08-04T23:04:05;10.50;60.60
68350;DHT22;55268;-34.538;-58.598;2022-08-04T23:06:38;10.50;60.70
68350;DHT22;55268;-34.538;-58.598;2022-08-04T23:09:06;10.40;61.00
68350;DHT22;55268;-34.538;-58.598;2022-08-04T23:11:34;10.30;61.00
68350;DHT22;55268;-34.538;-58.598;2022-08-04T23:14:03;10.30;61.10
68350;DHT22;55268;-34.538;-58.598;2022-08-04T23:16:33;10.20;61.20
68350;DHT22;55268;-34.538;-58.598;2022-08-04T23:19:02;10.20;61.30
68350;DHT22;55268;-34.538;-58.598;2022-08-04T23:21:29;10.20;61.70
68350;DHT22;55268;-34.538;-58.598;2022-08-04T23:23:57;10.20;61.90
68350;DHT22;55268;-34.538;-58.598;2022-08-04T23:26:30;10.20;62.00
68350;DHT22;55268;-34.538;-58.598;2022-08-04T23:28:59;10.10;62.10
68350;DHT22;55268;-34.538;-58.598;2022-08-04T23:31:26;10.10;62.30
68350;DHT22;55268;-34.538;-58.598;2022-08-04T23:33:54;10.10;62.40
68350;DHT22;55268;-34.538;-58.598;2022-08-04T23:36:23;10.10;62.40
68350;DHT22;55268;-34.538;-58.598;2022-08-04T23:38:53;10.00;62.70
68350;DHT22;55268;-34.538;-58.598;2022-08-04T23:41:20;10.00;63.00
68350;DHT22;55268;-34.538;-58.598;2022-08-04T23:43:47;9.90;63.30
68350;DHT22;55268;-34.538;-58.598;2022-08-04T23:46:17;9.80;63.60
68350;DHT22;55268;-34.538;-58.598;2022-08-04T23:48:47;9.80;63.90
68350;DHT22;55268;-34.538;-58.598;2022-08-04T23:51:16;9.70;64.20
68350;DHT22;55268;-34.538;-58.598;2022-08-04T23:53:44;9.70;64.30
68350;DHT22;55268;-34.538;-58.598;2022-08-04T23:56:15;9.70;64.30
68350;DHT22;55268;-34.538;-58.598;2022-08-04T23:58:46;9.80;64.40
